Time;durP1;ratioP1;P1;durP2;ratioP2;P2;SDS_P1;SDS_P2;PMS_P1;PMS_P2;Temp;Humidity;BMP_temperature;BMP_pressure;BME280_temperature;BME280_humidity;BME280_pressure;Samples;Min_cycle;Max_cycle;Signal;HPM_P1;HPM_P2
2022/12/26 00:04:50;;;;;;;4.77;4.10;;;;;;;13.43;48.74;99605.72;10427865;28;20227;-67
2022/12/26 00:09:54;;;;;;;5.60;4.20;;;;;;;13.24;49.40;99640.41;10476268;28;20231;-67
2022/12/26 00:14:55;;;;;;;7.50;3.90;;;;;;;13.39;49.06;99601.81;10482789;28;20595;-67
2022/12/26 00:19:57;;;;;;;6.10;3.97;;;;;;;13.61;49.27;99592.47;10482501;28;20233;-67
2022/12/26 00:24:59;;;;;;;4.53;3.90;;;;;;;13.82;48.24;99569.06;10485358;28;20228;-67
2022/12/26 00:30:00;;;;;;;5.53;3.90;;;;;;;13.91;48.54;99594.69;10483214;28;20223;-67
2022/12/26 00:35:02;;;;;;;7.43;3.80;;;;;;;13.96;48.80;99592.19;10426193;22;20227;-39
2022/12/26 00:40:05;;;;;;;5.07;3.60;;;;;;;14.19;48.07;99572.91;10399095;28;20272;-37
2022/12/26 00:45:07;;;;;;;4.73;3.67;;;;;;;12.62;50.60;99625.41;10386333;28;20241;-38
2022/12/26 00:50:09;;;;;;;4.37;3.43;;;;;;;13.38;49.52;99565.19;10396548;28;20357;-38
2022/12/26 00:55:15;;;;;;;3.60;3.00;;;;;;;13.54;49.09;99545.13;10406201;28;20613;-40
2022/12/26 01:00:17;;;;;;;4.00;3.57;;;;;;;14.84;47.48;99547.69;10392505;28;20233;-38
2022/12/26 01:05:19;;;;;;;5.87;3.70;;;;;;;14.71;47.18;99556.69;10403029;28;20705;-38
2022/12/26 01:10:20;;;;;;;5.40;4.10;;;;;;;14.29;48.11;99587.75;10401238;28;20247;-40
2022/12/26 01:15:22;;;;;;;6.40;3.70;;;;;;;14.03;47.49;99597.56;10404034;28;20620;-39
2022/12/26 01:20:24;;;;;;;3.93;3.27;;;;;;;14.55;47.35;99579.53;10399026;28;20695;-39
2022/12/26 01:25:25;;;;;;;3.90;3.30;;;;;;;14.20;47.66;99608.69;10396359;28;20237;-39
2022/12/26 01:30:27;;;;;;;4.23;3.30;;;;;;;13.99;48.41;99605.22;10399732;28;20259;-39
2022/12/26 01:35:29;;;;;;;5.53;3.50;;;;;;;12.35;51.73;99587.72;10404196;28;20233;-40
2022/12/26 01:40:30;;;;;;;3.47;2.97;;;;;;;14.02;48.06;99577.91;10404768;28;20232;-39
2022/12/26 01:45:32;;;;;;;3.80;3.20;;;;;;;14.56;47.35;99580.38;10403484;28;20243;-38
2022/12/26 01:50:47;;;;;;;3.77;3.20;;;;;;;14.29;47.89;99598.50;10404447;28;20260;-38
2022/12/26 01:55:55;;;;;;;4.03;3.57;;;;;;;13.76;48.65;99642.50;10396753;28;20228;-40
2022/12/26 02:00:57;;;;;;;4.30;3.23;;;;;;;14.57;47.47;99590.91;10398674;28;20589;-39
2022/12/26 02:06:00;;;;;;;4.17;3.47;;;;;;;14.06;48.61;99623.22;10398773;28;20241;-38
2022/12/26 02:11:13;;;;;;;3.87;3.30;;;;;;;14.11;47.93;99623.44;10384016;28;20331;-41
2022/12/26 02:16:17;;;;;;;4.37;3.80;;;;;;;13.21;49.47;99662.34;10394593;28;20239;-38
2022/12/26 02:21:21;;;;;;;4.73;3.50;;;;;;;14.07;48.02;99606.91;10394035;28;20331;-39
2022/12/26 02:26:38;;;;;;;5.50;3.10;;;;;;;14.75;47.13;99602.84;10389152;28;20228;-39
2022/12/26 02:32:07;;;;;;;4.40;3.30;;;;;;;14.10;48.22;99630.66;10395791;28;20674;-39
2022/12/26 02:37:21;;;;;;;3.37;3.07;;;;;;;13.96;48.45;99627.16;10395158;28;20237;-38
2022/12/26 02:42:41;;;;;;;4.63;3.57;;;;;;;12.64;50.56;99634.94;10398468;28;20757;-40
2022/12/26 02:47:57;;;;;;;4.40;3.20;;;;;;;13.65;50.05;99620.59;10393507;28;20547;-38
2022/12/26 03:15:14;;;;;;;5.50;3.43;;;;;;;13.03;49.62;99633.38;10395846;28;20239;-38
2022/12/26 03:20:22;;;;;;;4.33;3.43;;;;;;;13.99;48.52;99618.66;10395959;28;20239;-38
2022/12/26 03:31:06;;;;;;;5.40;3.60;;;;;;;14.36;48.55;99550.88;10342168;28;20764;-40
2022/12/26 03:36:32;;;;;;;4.10;3.70;;;;;;;14.76;47.70;99562.25;10395413;28;20240;-38
2022/12/26 04:54:38;;;;;;;5.40;3.60;;;;;;;14.58;49.37;99624.06;10400741;28;20225;-38
2022/12/26 05:00:04;;;;;;;4.57;3.63;;;;;;;14.58;49.60;99599.84;10400596;28;20494;-37
2022/12/26 05:11:22;;;;;;;6.70;3.43;;;;;;;14.34;50.47;99545.72;10401911;28;20340;-39
2022/12/26 05:34:04;;;;;;;3.97;3.37;;;;;;;13.26;52.58;99599.91;10397475;28;20228;-38
2022/12/26 05:39:30;;;;;;;6.97;3.17;;;;;;;13.98;51.06;99541.69;10383871;28;20228;-38
2022/12/26 05:44:57;;;;;;;4.83;4.03;;;;;;;12.57;52.96;99609.09;10399586;28;20236;-37
2022/12/26 05:50:22;;;;;;;5.40;3.70;;;;;;;13.61;51.01;99588.97;10397877;28;20229;-38
2022/12/26 05:55:48;;;;;;;4.67;4.10;;;;;;;14.13;50.12;99578.31;10397453;28;20259;-38
2022/12/26 06:01:17;;;;;;;4.27;3.43;;;;;;;15.31;48.00;99580.47;10396331;28;20228;-37
2022/12/26 06:06:43;;;;;;;4.13;3.63;;;;;;;14.89;48.50;99590.97;10395797;28;20658;-37
2022/12/26 19:12:19;;;;;;;2.27;1.90;;;;;;;11.44;50.80;100336.25;10433541;28;20294;-66
2022/12/26 19:17:21;;;;;;;3.80;3.03;;;;;;;12.30;48.92;100306.59;10438873;28;20227;-65
2022/12/26 19:22:23;;;;;;;5.03;3.53;;;;;;;12.72;48.80;100335.56;10418195;28;20232;-66
2022/12/26 19:27:24;;;;;;;4.40;3.00;;;;;;;12.70;48.90;100336.75;10432615;28;20243;-66
2022/12/26 19:32:26;;;;;;;1.70;1.60;;;;;;;11.23;51.59;100358.28;10428209;28;20220;-67
2022/12/26 19:37:28;;;;;;;3.67;1.90;;;;;;;10.83;53.82;100352.09;10455840;28;20234;-67
2022/12/26 19:42:32;;;;;;;2.97;2.10;;;;;;;11.62;50.70;100327.91;10448385;28;20228;-66
2022/12/26 19:47:34;;;;;;;3.40;2.30;;;;;;;12.29;49.47;100346.00;10434434;28;20277;-66
2022/12/26 19:52:37;;;;;;;2.43;2.23;;;;;;;12.06;50.70;100380.91;10445842;28;20595;-67
2022/12/26 19:57:39;;;;;;;4.40;3.23;;;;;;;11.18;51.15;100387.44;10430976;28;20241;-68
2022/12/26 20:02:40;;;;;;;2.07;1.93;;;;;;;12.57;50.16;100395.59;10438234;28;20239;-67
2022/12/26 20:07:42;;;;;;;1.87;1.77;;;;;;;12.61;49.12;100405.81;10442056;28;20267;-68
2022/12/26 20:12:44;;;;;;;2.93;2.37;;;;;;;12.33;49.74;100414.44;10441208;28;20224;-68
2022/12/26 20:17:46;;;;;;;2.50;1.80;;;;;;;11.67;50.19;100443.53;10444191;28;20231;-68
2022/12/26 20:22:47;;;;;;;2.03;1.90;;;;;;;12.83;48.71;100438.16;10446508;28;20319;-68
2022/12/26 20:27:53;;;;;;;2.43;2.23;;;;;;;13.37;48.31;100464.78;10443627;28;20228;-68
2022/12/26 20:32:56;;;;;;;2.53;2.30;;;;;;;13.62;47.72;100483.31;10443223;28;20232;-68
2022/12/26 20:37:58;;;;;;;3.60;2.30;;;;;;;12.14;49.38;100476.59;10451417;28;20646;-69
2022/12/26 20:42:59;;;;;;;2.20;2.10;;;;;;;11.01;51.25;100462.50;10447255;28;20231;-68
2022/12/26 20:48:01;;;;;;;3.63;2.00;;;;;;;11.29;50.70;100483.53;10470044;28;20236;-68
2022/12/26 20:53:03;;;;;;;3.40;2.80;;;;;;;11.14;51.36;100502.16;10466846;28;20227;-68
2022/12/26 20:58:04;;;;;;;2.77;2.57;;;;;;;13.28;48.05;100490.94;10469332;28;20942;-68
2022/12/26 21:03:06;;;;;;;2.37;2.17;;;;;;;13.31;48.30;100499.63;10469437;28;20231;-68
2022/12/26 21:08:08;;;;;;;3.37;2.60;;;;;;;10.67;51.23;100457.34;10467358;28;20236;-69
2022/12/26 21:13:09;;;;;;;4.43;3.07;;;;;;;13.10;48.42;100499.31;10471739;28;20671;-68
2022/12/26 21:18:11;;;;;;;3.43;2.33;;;;;;;11.84;48.97;100534.59;10478328;28;20231;-68
2022/12/26 21:23:13;;;;;;;3.80;2.30;;;;;;;10.96;49.42;100557.75;10469187;28;20246;-68
2022/12/26 21:28:15;;;;;;;5.03;3.10;;;;;;;12.31;48.11;100512.22;10463993;28;20228;-68
2022/12/26 21:33:16;;;;;;;4.03;2.50;;;;;;;10.52;49.47;100535.59;10471601;28;20223;-68
2022/12/26 21:38:23;;;;;;;2.57;2.37;;;;;;;11.48;48.69;100573.41;10452636;28;20242;-68
2022/12/26 21:43:29;;;;;;;3.70;2.20;;;;;;;10.32;49.35;100550.28;10470541;28;20235;-68
2022/12/26 21:48:30;;;;;;;3.00;2.30;;;;;;;10.93;47.38;100604.41;10455164;28;20231;-68
2022/12/26 21:53:32;;;;;;;4.13;2.40;;;;;;;10.59;48.26;100613.38;10465087;28;20224;-68
2022/12/26 22:09:17;;;;;;;4.50;2.43;;;;;;;10.84;47.63;100649.09;10466893;28;20234;-68
2022/12/26 22:14:20;;;;;;;4.87;2.10;;;;;;;10.18;48.26;100623.97;10464085;28;20242;-68
2022/12/26 22:19:23;;;;;;;3.17;2.53;;;;;;;10.52;47.73;100655.19;10472295;28;20230;-68
2022/12/26 22:24:25;;;;;;;2.50;2.00;;;;;;;8.56;49.22;100509.53;10470315;28;20318;-68
2022/12/26 22:29:26;;;;;;;3.63;2.00;;;;;;;9.40;47.80;100640.91;10457928;28;20247;-68
2022/12/26 22:34:28;;;;;;;3.07;2.00;;;;;;;8.67;48.31;100604.50;10447462;28;20216;-68
2022/12/26 22:39:30;;;;;;;2.40;2.30;;;;;;;8.98;47.57;100657.56;10454453;28;20235;-68
2022/12/26 22:44:31;;;;;;;2.20;2.10;;;;;;;9.17;46.83;100692.09;10460849;28;20717;-68
2022/12/26 22:49:33;;;;;;;2.63;2.23;;;;;;;9.19;46.33;100702.63;10465046;28;20317;-68
2022/12/26 22:54:35;;;;;;;2.67;2.20;;;;;;;8.88;46.65;100705.69;10463409;28;20622;-68
2022/12/26 22:59:38;;;;;;;1.90;1.80;;;;;;;7.86;48.04;100650.56;10460979;28;20618;-68
2022/12/26 23:05:00;;;;;;;2.70;2.20;;;;;;;9.01;46.13;100748.00;10470039;28;20259;-68
2022/12/26 23:10:04;;;;;;;7.43;2.53;;;;;;;8.78;46.57;100763.59;10464446;28;20231;-68
2022/12/26 23:15:06;;;;;;;2.60;2.17;;;;;;;8.21;47.09;100755.69;10465876;28;20234;-69
2022/12/26 23:25:32;;;;;;;2.20;2.00;;;;;;;8.05;46.80;100774.94;10464984;28;20230;-68
2022/12/26 23:30:34;;;;;;;2.30;2.10;;;;;;;8.42;46.60;100796.31;10477336;28;20728;-68
2022/12/26 23:35:36;;;;;;;2.83;2.00;;;;;;;8.56;46.06;100803.00;10475589;28;20235;-68
2022/12/26 23:40:37;;;;;;;2.10;1.90;;;;;;;8.81;45.54;100808.69;10478688;28;20228;-68
2022/12/26 23:45:43;;;;;;;2.90;2.60;;;;;;;8.93;45.48;100820.84;10462453;28;20256;-68
2022/12/26 23:50:45;;;;;;;3.30;2.10;;;;;;;8.54;45.40;100826.34;10474950;28;20239;-68
2022/12/26 23:55:46;;;;;;;4.00;2.30;;;;;;;8.71;45.78;100837.19;10475017;28;20238;-68
